createdAt,value
2023-04-11T00:00:52.921Z,99.90
2023-04-11T00:03:40.877Z,99.90
2023-04-11T00:06:28.645Z,99.90
2023-04-11T00:09:17.134Z,99.90
2023-04-11T00:12:04.966Z,99.90
2023-04-11T00:14:53.907Z,99.90
2023-04-11T00:17:42.660Z,99.90
2023-04-11T00:20:30.115Z,99.90
2023-04-11T00:23:18.409Z,99.90
2023-04-11T00:26:06.315Z,99.90
2023-04-11T00:28:54.331Z,99.90
2023-04-11T00:31:41.995Z,99.90
2023-04-11T00:34:29.726Z,99.90
2023-04-11T00:37:17.793Z,99.90
2023-04-11T00:40:06.581Z,99.90
2023-04-11T00:42:55.838Z,99.90
2023-04-11T00:45:43.411Z,99.90
2023-04-11T00:48:31.601Z,99.90
2023-04-11T00:51:20.170Z,99.90
2023-04-11T00:54:10.291Z,99.90
2023-04-11T00:56:59.991Z,99.90
2023-04-11T00:59:48.393Z,99.90
2023-04-11T01:02:37.557Z,99.90
2023-04-11T01:05:25.613Z,99.90
2023-04-11T01:08:14.817Z,99.90
2023-04-11T01:11:03.756Z,99.90
2023-04-11T01:13:52.551Z,99.90
2023-04-11T01:16:40.106Z,99.90
2023-04-11T01:19:28.057Z,99.90
2023-04-11T01:22:18.114Z,99.90
2023-04-11T01:25:06.099Z,99.90
2023-04-11T01:27:53.504Z,99.90
2023-04-11T01:30:40.911Z,99.90
2023-04-11T01:33:28.423Z,99.90
2023-04-11T01:36:15.929Z,99.90
2023-04-11T01:39:03.522Z,99.90
2023-04-11T01:41:52.134Z,99.90
2023-04-11T01:44:39.639Z,99.90
2023-04-11T01:47:27.114Z,99.90
2023-04-11T01:50:14.678Z,99.90
2023-04-11T01:53:02.243Z,99.90
2023-04-11T01:55:49.652Z,99.90
2023-04-11T01:58:37.048Z,99.90
2023-04-11T02:01:24.851Z,99.90
2023-04-11T02:04:12.738Z,99.90
2023-04-11T02:07:00.321Z,99.90
2023-04-11T02:09:47.808Z,99.90
2023-04-11T02:12:35.209Z,99.90
2023-04-11T02:15:22.694Z,99.90
2023-04-11T02:18:11.233Z,99.90
2023-04-11T02:20:58.624Z,99.90
2023-04-11T02:23:45.984Z,99.90
2023-04-11T02:26:33.435Z,99.90
2023-04-11T02:29:20.973Z,99.90
2023-04-11T02:32:08.647Z,99.90
2023-04-11T02:34:56.456Z,99.90
2023-04-11T02:37:44.086Z,99.90
2023-04-11T02:40:31.564Z,99.90
2023-04-11T02:43:19.004Z,99.90
2023-04-11T02:46:12.556Z,99.90
2023-04-11T02:49:00.592Z,99.90
2023-04-11T02:51:47.997Z,99.90
2023-04-11T02:54:35.487Z,99.90
2023-04-11T02:57:22.942Z,99.90
2023-04-11T03:00:11.055Z,99.90
2023-04-11T03:02:59.144Z,99.90
2023-04-11T03:05:47.254Z,99.90
2023-04-11T03:08:36.090Z,99.90
2023-04-11T03:11:23.536Z,99.90
2023-04-11T03:14:10.969Z,99.90
2023-04-11T03:16:58.373Z,99.90
2023-04-11T03:19:45.944Z,99.90
2023-04-11T03:22:33.384Z,99.90
2023-04-11T03:25:21.370Z,99.90
2023-04-11T03:28:08.828Z,99.90
2023-04-11T03:30:56.400Z,99.90
2023-04-11T03:33:46.082Z,99.90
2023-04-11T03:36:33.490Z,99.90
2023-04-11T03:39:21.947Z,99.90
2023-04-11T03:42:09.452Z,99.90
2023-04-11T03:44:56.947Z,99.90
2023-04-11T03:47:44.489Z,99.90
2023-04-11T03:50:32.095Z,99.90
2023-04-11T03:53:19.571Z,99.90
2023-04-11T03:56:07.583Z,99.90
2023-04-11T03:58:55.177Z,99.90
2023-04-11T04:01:42.774Z,99.90
2023-04-11T04:04:32.345Z,99.90
2023-04-11T04:07:22.230Z,99.90
2023-04-11T04:10:09.941Z,99.90
2023-04-11T04:12:57.427Z,99.90
2023-04-11T04:15:44.790Z,99.90
2023-04-11T04:18:32.226Z,99.90
2023-04-11T04:21:19.687Z,99.90
2023-04-11T04:24:07.249Z,99.90
2023-04-11T04:26:57.836Z,99.90
2023-04-11T04:29:48.582Z,99.90
2023-04-11T04:32:44.203Z,99.90
2023-04-11T04:35:31.692Z,99.90
2023-04-11T04:38:19.443Z,99.90
2023-04-11T04:41:14.726Z,99.90
2023-04-11T04:44:04.432Z,99.90
2023-04-11T04:46:55.383Z,99.90
2023-04-11T04:49:44.428Z,99.90
2023-04-11T04:52:31.894Z,99.90
2023-04-11T04:55:19.317Z,99.90
2023-04-11T04:58:06.975Z,99.90
2023-04-11T05:00:56.192Z,99.90
2023-04-11T05:03:46.677Z,99.90
2023-04-11T05:06:34.216Z,99.90
2023-04-11T05:09:21.754Z,99.90
2023-04-11T05:12:09.221Z,99.90
2023-04-11T05:14:56.882Z,99.90
2023-04-11T05:17:44.394Z,99.90
2023-04-11T05:20:31.782Z,99.90
2023-04-11T05:23:19.222Z,99.90
2023-04-11T05:26:08.610Z,99.90
2023-04-11T05:28:56.047Z,99.90
2023-04-11T05:31:43.653Z,99.90
2023-04-11T05:34:32.487Z,99.90
2023-04-11T05:37:20.767Z,99.90
2023-04-11T05:40:09.698Z,99.90
2023-04-11T05:42:57.165Z,99.90
2023-04-11T05:45:48.114Z,99.90
2023-04-11T05:48:36.173Z,99.90
2023-04-11T05:51:24.143Z,99.90
2023-04-11T05:54:13.634Z,99.90
2023-04-11T05:57:06.251Z,99.90
2023-04-11T05:59:53.787Z,99.90
2023-04-11T06:02:42.746Z,99.90
2023-04-11T06:05:31.313Z,99.90
2023-04-11T06:08:18.894Z,99.90
2023-04-11T06:11:06.439Z,99.90
2023-04-11T06:13:54.072Z,99.90
2023-04-11T06:16:42.603Z,99.90
2023-04-11T06:19:30.329Z,99.90
2023-04-11T06:22:17.837Z,99.90
2023-04-11T06:25:05.916Z,99.90
2023-04-11T06:27:53.392Z,99.90
2023-04-11T06:30:41.619Z,99.90
2023-04-11T06:33:29.216Z,99.90
2023-04-11T06:36:16.868Z,99.90
2023-04-11T06:39:05.676Z,99.90
2023-04-11T06:41:53.187Z,99.90
2023-04-11T06:44:40.888Z,99.90
2023-04-11T06:47:28.393Z,99.90
2023-04-11T06:50:15.909Z,99.90
2023-04-11T06:53:03.489Z,99.90
2023-04-11T06:55:51.047Z,99.90
2023-04-11T06:58:38.536Z,99.90
2023-04-11T07:01:30.686Z,99.90
2023-04-11T07:04:18.354Z,99.90
2023-04-11T07:07:05.893Z,99.90
2023-04-11T07:09:53.451Z,99.90
2023-04-11T07:12:41.038Z,99.90
2023-04-11T07:15:28.472Z,99.90
2023-04-11T07:18:16.112Z,99.90
2023-04-11T07:21:03.705Z,99.90
2023-04-11T07:23:52.774Z,99.90
2023-04-11T07:26:42.232Z,99.90
2023-04-11T07:29:29.782Z,99.90
2023-04-11T07:32:17.238Z,99.90
2023-04-11T07:35:04.927Z,99.90
2023-04-11T07:37:53.635Z,99.90
2023-04-11T07:40:41.061Z,99.90
2023-04-11T07:43:30.103Z,99.90
2023-04-11T07:46:17.561Z,99.90
2023-04-11T07:49:05.559Z,99.90
2023-04-11T07:51:53.556Z,99.90
2023-04-11T07:54:41.239Z,99.90
2023-04-11T07:57:30.072Z,99.90
2023-04-11T08:00:22.179Z,99.90
2023-04-11T08:03:11.398Z,99.90
2023-04-11T08:05:59.065Z,99.90
2023-04-11T08:08:48.022Z,99.90
2023-04-11T08:11:35.769Z,99.90
2023-04-11T08:14:23.647Z,99.90
2023-04-11T08:17:27.079Z,99.90
2023-04-11T08:20:16.581Z,99.90
2023-04-11T08:23:06.141Z,99.90
2023-04-11T08:25:53.816Z,99.90
2023-04-11T08:28:42.802Z,99.90
2023-04-11T08:31:32.390Z,99.90
2023-04-11T08:34:20.560Z,99.90
2023-04-11T08:37:08.246Z,99.90
2023-04-11T08:39:56.976Z,99.90
2023-04-11T08:42:45.809Z,99.90
2023-04-11T08:45:33.366Z,99.90
2023-04-11T08:48:25.072Z,99.90
2023-04-11T08:51:14.589Z,99.90
2023-04-11T08:54:07.075Z,99.90
2023-04-11T08:56:54.652Z,99.90
2023-04-11T08:59:53.673Z,99.90
2023-04-11T09:03:00.849Z,99.90
2023-04-11T09:05:48.568Z,99.90
2023-04-11T09:08:39.431Z,99.90
2023-04-11T09:11:27.453Z,99.90
2023-04-11T09:14:14.952Z,99.90
2023-04-11T09:17:04.491Z,99.90
2023-04-11T09:19:52.379Z,99.90
2023-04-11T09:22:41.423Z,99.90
2023-04-11T09:25:44.208Z,99.90
2023-04-11T09:28:42.980Z,99.90
2023-04-11T09:31:41.135Z,99.90
2023-04-11T09:34:29.227Z,99.90
2023-04-11T09:37:16.661Z,99.90
2023-04-11T09:40:05.682Z,99.90
2023-04-11T09:43:01.019Z,99.90
2023-04-11T09:45:54.621Z,99.90
2023-04-11T09:49:01.813Z,99.90
2023-04-11T09:51:50.781Z,99.90
2023-04-11T09:54:38.357Z,99.90
2023-04-11T09:57:27.087Z,99.90
2023-04-11T10:00:17.101Z,97.10
2023-04-11T10:03:04.784Z,91.00
2023-04-11T10:05:56.459Z,86.60
2023-04-11T10:08:44.637Z,89.40
2023-04-11T10:11:32.859Z,76.30
2023-04-11T10:14:39.111Z,79.80
2023-04-11T10:17:27.218Z,78.50
2023-04-11T10:20:37.893Z,73.90
2023-04-11T10:23:26.050Z,78.20
2023-04-11T10:26:14.275Z,67.00
2023-04-11T10:29:01.767Z,63.00
2023-04-11T10:32:11.870Z,62.60
2023-04-11T10:35:02.085Z,58.40
2023-04-11T10:37:50.412Z,56.10
2023-04-11T10:41:36.514Z,55.80
2023-04-11T10:44:24.963Z,55.50
2023-04-11T10:47:17.721Z,54.10
2023-04-11T10:50:25.449Z,52.20
2023-04-11T10:53:38.929Z,63.10
2023-04-11T10:56:48.862Z,54.60
2023-04-11T10:59:39.150Z,51.50
2023-04-11T11:02:37.516Z,48.20
2023-04-11T11:05:25.659Z,45.20
2023-04-11T11:08:13.657Z,43.90
2023-04-11T11:11:02.588Z,51.20
2023-04-11T11:13:55.787Z,55.00
2023-04-11T11:16:46.775Z,55.90
2023-04-11T11:19:35.564Z,49.30
2023-04-11T11:22:26.054Z,46.30
2023-04-11T11:25:14.194Z,46.00
2023-04-11T11:28:08.722Z,41.20
2023-04-11T11:30:57.305Z,41.00
2023-04-11T11:33:44.938Z,39.00
2023-04-11T11:36:36.843Z,43.30
2023-04-11T11:39:24.723Z,39.80
2023-04-11T11:42:12.279Z,38.00
2023-04-11T11:45:19.364Z,40.70
2023-04-11T11:48:07.357Z,38.70
2023-04-11T11:50:57.399Z,32.60
2023-04-11T11:53:44.954Z,31.00
2023-04-11T11:56:32.609Z,30.00
2023-04-11T11:59:29.079Z,29.20
2023-04-11T12:02:17.009Z,24.70
2023-04-11T12:05:10.662Z,25.20
2023-04-11T12:08:00.578Z,25.20
2023-04-11T12:10:50.162Z,24.30
2023-04-11T12:13:37.686Z,26.20
2023-04-11T12:16:25.576Z,24.60
2023-04-11T12:19:13.482Z,23.80
2023-04-11T12:22:01.812Z,22.10
2023-04-11T12:25:12.435Z,17.60
2023-04-11T12:27:59.954Z,18.90
2023-04-11T12:30:47.698Z,18.30
2023-04-11T12:33:35.376Z,19.70
2023-04-11T12:36:22.921Z,19.00
2023-04-11T12:39:10.438Z,17.60
2023-04-11T12:41:57.904Z,16.90
2023-04-11T12:44:47.375Z,15.40
2023-04-11T12:47:35.778Z,16.60
2023-04-11T12:50:23.710Z,13.20
2023-04-11T12:53:11.538Z,13.10
2023-04-11T12:55:59.130Z,14.80
2023-04-11T12:58:46.624Z,16.10
2023-04-11T13:01:34.073Z,16.30
2023-04-11T13:04:21.692Z,16.10
2023-04-11T13:07:10.060Z,16.20
2023-04-11T13:09:58.062Z,17.20
2023-04-11T13:12:46.432Z,18.40
2023-04-11T13:15:34.234Z,17.20
2023-04-11T13:18:21.809Z,19.30
2023-04-11T13:21:09.333Z,17.20
2023-04-11T13:23:57.024Z,17.80
2023-04-11T13:26:45.025Z,16.90
2023-04-11T13:29:32.479Z,17.90
2023-04-11T13:32:19.925Z,15.80
2023-04-11T13:35:08.256Z,17.10
2023-04-11T13:37:55.800Z,17.70
2023-04-11T13:40:43.251Z,18.00
2023-04-11T13:43:31.171Z,15.70
2023-04-11T13:46:19.251Z,13.70
2023-04-11T13:49:06.739Z,14.10
2023-04-11T13:51:54.191Z,14.10
2023-04-11T13:54:41.916Z,15.50
2023-04-11T13:57:29.390Z,16.80
2023-04-11T14:00:17.548Z,16.60
2023-04-11T14:03:05.105Z,16.70
2023-04-11T14:05:52.648Z,15.50
2023-04-11T14:08:41.002Z,14.80
2023-04-11T14:11:28.475Z,16.30
2023-04-11T14:14:16.056Z,17.30
2023-04-11T14:17:03.712Z,18.20
2023-04-11T14:19:51.431Z,18.30
2023-04-11T14:22:39.128Z,17.80
2023-04-11T14:25:26.536Z,17.40
2023-04-11T14:28:14.003Z,17.60
2023-04-11T14:31:01.617Z,18.20
2023-04-11T14:33:49.098Z,18.00
2023-04-11T14:36:36.591Z,19.40
2023-04-11T14:39:24.031Z,19.10
2023-04-11T14:42:11.405Z,18.80
2023-04-11T14:44:58.857Z,18.00
2023-04-11T14:47:46.748Z,16.50
2023-04-11T14:50:34.326Z,15.10
2023-04-11T14:53:22.613Z,15.10
2023-04-11T14:56:10.660Z,16.60
2023-04-11T14:58:58.087Z,17.90
2023-04-11T15:01:45.740Z,17.80
2023-04-11T15:04:33.345Z,16.40
2023-04-11T15:07:22.244Z,16.60
2023-04-11T15:10:10.246Z,17.00
2023-04-11T15:12:57.729Z,17.40
2023-04-11T15:15:45.374Z,17.90
2023-04-11T15:18:32.824Z,17.20
2023-04-11T15:21:20.438Z,16.60
2023-04-11T15:24:07.885Z,17.90
2023-04-11T15:26:56.674Z,18.40
2023-04-11T15:29:44.084Z,18.80
2023-04-11T15:32:32.212Z,20.20
2023-04-11T15:35:19.718Z,20.60
2023-04-11T15:38:07.394Z,21.10
2023-04-11T15:40:56.284Z,21.70
2023-04-11T15:43:43.927Z,21.10
2023-04-11T15:46:31.679Z,21.10
2023-04-11T15:49:19.059Z,20.70
2023-04-11T15:52:07.305Z,20.90
2023-04-11T15:54:54.800Z,21.90
2023-04-11T15:57:42.506Z,20.20
2023-04-11T16:00:30.037Z,21.20
2023-04-11T16:03:18.057Z,20.00
2023-04-11T16:06:05.934Z,20.10
2023-04-11T16:08:54.197Z,21.20
2023-04-11T16:11:41.679Z,20.60
2023-04-11T16:14:29.488Z,20.90
2023-04-11T16:17:19.135Z,19.30
2023-04-11T16:20:14.021Z,18.70
2023-04-11T16:23:01.501Z,18.00
2023-04-11T16:25:48.980Z,20.30
2023-04-11T16:28:36.533Z,20.10
2023-04-11T16:31:24.940Z,20.50
2023-04-11T16:34:12.525Z,19.30
2023-04-11T16:37:01.116Z,18.60
2023-04-11T16:39:48.638Z,18.90
2023-04-11T16:42:36.237Z,19.20
2023-04-11T16:45:23.925Z,17.80
2023-04-11T16:48:11.716Z,17.50
2023-04-11T16:50:59.195Z,18.60
2023-04-11T16:53:47.364Z,19.10
2023-04-11T16:56:35.634Z,20.00
2023-04-11T16:59:23.774Z,19.10
2023-04-11T17:02:11.315Z,19.20
2023-04-11T17:04:59.950Z,19.70
2023-04-11T17:07:47.691Z,19.60
2023-04-11T17:10:35.215Z,19.40
2023-04-11T17:13:22.661Z,20.20
2023-04-11T17:16:10.314Z,21.00
2023-04-11T17:18:57.809Z,20.80
2023-04-11T17:21:45.411Z,22.00
2023-04-11T17:24:33.078Z,22.70
2023-04-11T17:27:20.539Z,22.80
2023-04-11T17:30:09.885Z,23.70
2023-04-11T17:32:57.338Z,24.20
2023-04-11T17:35:45.772Z,24.80
2023-04-11T17:38:33.273Z,25.40
2023-04-11T17:41:21.436Z,25.50
2023-04-11T17:44:08.892Z,25.10
2023-04-11T17:46:56.656Z,25.70
2023-04-11T17:49:45.968Z,26.00
2023-04-11T17:52:33.479Z,26.50
2023-04-11T17:55:22.170Z,27.30
2023-04-11T17:58:10.059Z,27.20
2023-04-11T18:00:57.516Z,27.30
2023-04-11T18:03:45.172Z,27.70
2023-04-11T18:06:34.154Z,28.40
2023-04-11T18:09:26.792Z,28.70
2023-04-11T18:12:14.445Z,29.00
2023-04-11T18:15:02.162Z,29.30
2023-04-11T18:17:51.464Z,30.00
2023-04-11T18:20:38.888Z,30.40
2023-04-11T18:23:26.378Z,30.80
2023-04-11T18:26:13.885Z,30.80
2023-04-11T18:29:01.420Z,31.20
2023-04-11T18:31:48.877Z,32.20
2023-04-11T18:34:36.906Z,33.00
2023-04-11T18:37:26.453Z,33.50
2023-04-11T18:40:14.425Z,33.50
2023-04-11T18:43:02.082Z,33.60
2023-04-11T18:45:50.389Z,34.20
2023-04-11T18:48:38.006Z,33.40
2023-04-11T18:51:25.489Z,32.90
2023-04-11T18:54:13.346Z,33.00
2023-04-11T18:57:01.447Z,32.80
2023-04-11T18:59:50.504Z,34.30
2023-04-11T19:02:38.742Z,35.50
2023-04-11T19:05:26.706Z,36.00
2023-04-11T19:08:14.430Z,37.60
2023-04-11T19:11:02.010Z,37.80
2023-04-11T19:13:49.564Z,38.00
2023-04-11T19:16:37.552Z,37.90
2023-04-11T19:19:25.261Z,38.20
2023-04-11T19:22:12.784Z,38.40
2023-04-11T19:25:00.327Z,38.20
2023-04-11T19:27:48.886Z,38.70
2023-04-11T19:30:36.371Z,39.20
2023-04-11T19:33:25.922Z,39.40
2023-04-11T19:36:13.289Z,40.30
2023-04-11T19:39:00.890Z,40.70
2023-04-11T19:41:48.316Z,41.90
2023-04-11T19:44:36.463Z,42.70
2023-04-11T19:47:24.122Z,43.00
2023-04-11T19:50:14.972Z,43.80
2023-04-11T19:53:02.825Z,45.20
2023-04-11T19:55:54.096Z,46.10
2023-04-11T19:58:42.564Z,47.00
2023-04-11T20:01:32.240Z,48.60
2023-04-11T20:04:20.184Z,49.30
2023-04-11T20:07:07.715Z,49.90
2023-04-11T20:09:55.335Z,50.90
2023-04-11T20:12:43.188Z,51.40
2023-04-11T20:15:31.479Z,52.50
2023-04-11T20:18:18.949Z,53.30
2023-04-11T20:21:07.803Z,54.20
2023-04-11T20:23:55.689Z,54.70
2023-04-11T20:26:43.797Z,55.10
2023-04-11T20:29:32.614Z,56.20
2023-04-11T20:32:20.407Z,56.70
2023-04-11T20:35:09.883Z,57.90
2023-04-11T20:37:57.838Z,58.70
2023-04-11T20:40:45.296Z,60.00
2023-04-11T20:43:32.778Z,61.10
2023-04-11T20:46:21.500Z,62.30
2023-04-11T20:49:09.394Z,62.70
2023-04-11T20:51:56.821Z,63.80
2023-04-11T20:54:44.607Z,64.00
2023-04-11T20:57:33.544Z,65.50
2023-04-11T21:00:21.091Z,68.00
2023-04-11T21:03:09.218Z,69.30
2023-04-11T21:05:56.847Z,69.90
2023-04-11T21:08:47.520Z,68.80
2023-04-11T21:11:34.948Z,69.10
2023-04-11T21:14:22.519Z,70.30
2023-04-11T21:17:10.308Z,70.50
2023-04-11T21:19:57.688Z,71.30
2023-04-11T21:22:50.536Z,72.50
2023-04-11T21:25:37.988Z,72.80
2023-04-11T21:28:25.786Z,74.20
2023-04-11T21:31:13.355Z,74.10
2023-04-11T21:34:01.669Z,75.10
2023-04-11T21:36:49.891Z,75.40
2023-04-11T21:39:37.414Z,76.70
2023-04-11T21:42:24.871Z,77.50
2023-04-11T21:45:12.459Z,77.20
2023-04-11T21:47:59.945Z,78.80
2023-04-11T21:50:48.295Z,79.10
2023-04-11T21:53:35.917Z,78.20
2023-04-11T21:56:23.417Z,78.60
2023-04-11T21:59:11.178Z,78.10
2023-04-11T22:01:58.715Z,79.40
2023-04-11T22:05:04.098Z,78.80
2023-04-11T22:08:10.477Z,79.30
2023-04-11T22:10:58.380Z,78.60
2023-04-11T22:13:46.523Z,78.50
2023-04-11T22:16:34.973Z,78.20
2023-04-11T22:19:24.155Z,78.40
2023-04-11T22:22:13.100Z,79.40
2023-04-11T22:25:00.571Z,79.20
2023-04-11T22:27:50.528Z,79.90
2023-04-11T22:30:38.147Z,80.40
2023-04-11T22:33:25.705Z,80.50
2023-04-11T22:36:13.127Z,80.60
2023-04-11T22:39:01.013Z,81.30
2023-04-11T22:41:50.534Z,83.50
2023-04-11T22:44:38.069Z,85.00
2023-04-11T22:47:28.601Z,86.30
2023-04-11T22:50:16.181Z,86.20
2023-04-11T22:53:03.850Z,86.10
2023-04-11T22:55:51.656Z,86.80
2023-04-11T22:58:39.693Z,87.00
2023-04-11T23:01:28.134Z,87.20
2023-04-11T23:04:16.030Z,86.90
2023-04-11T23:07:05.047Z,87.30
2023-04-11T23:09:56.187Z,86.20
2023-04-11T23:12:44.610Z,86.20
2023-04-11T23:15:32.665Z,86.50
2023-04-11T23:18:20.309Z,85.50
2023-04-11T23:21:13.199Z,85.50
2023-04-11T23:24:00.583Z,85.50
2023-04-11T23:26:47.956Z,86.40
2023-04-11T23:29:35.449Z,85.20
2023-04-11T23:32:23.097Z,86.20
2023-04-11T23:35:10.879Z,87.40
2023-04-11T23:37:59.908Z,87.00
2023-04-11T23:40:48.034Z,87.80
2023-04-11T23:43:35.476Z,90.20
2023-04-11T23:46:23.235Z,91.30
2023-04-11T23:49:10.848Z,91.50
2023-04-11T23:51:58.256Z,92.60
2023-04-11T23:54:45.635Z,93.00
2023-04-11T23:57:33.263Z,92.40
